createdAt,value
2018-04-09T00:02:03.311Z,38.00
2018-04-09T00:04:30.827Z,36.17
2018-04-09T00:06:58.293Z,35.93
2018-04-09T00:09:25.748Z,38.07
2018-04-09T00:11:53.214Z,36.23
2018-04-09T00:14:20.658Z,36.70
2018-04-09T00:16:48.118Z,38.10
2018-04-09T00:19:15.646Z,37.80
2018-04-09T00:21:43.179Z,37.97
2018-04-09T00:24:10.627Z,36.57
2018-04-09T00:26:38.975Z,38.97
2018-04-09T00:29:06.445Z,36.43
2018-04-09T00:31:33.906Z,36.67
2018-04-09T00:34:01.743Z,36.93
2018-04-09T00:36:29.319Z,37.53
2018-04-09T00:38:56.792Z,36.07
2018-04-09T00:41:24.317Z,36.80
2018-04-09T00:43:51.777Z,36.20
2018-04-09T00:46:19.249Z,36.60
2018-04-09T00:48:51.727Z,37.13
2018-04-09T00:51:19.163Z,35.20
2018-04-09T00:53:58.580Z,37.60
2018-04-09T00:56:26.020Z,35.00
2018-04-09T00:58:53.527Z,36.03
2018-04-09T01:01:20.996Z,36.63
2018-04-09T01:03:48.433Z,38.07
2018-04-09T01:06:15.895Z,36.53
2018-04-09T01:08:43.328Z,35.80
2018-04-09T01:11:10.824Z,34.77
2018-04-09T01:13:38.319Z,36.27
2018-04-09T01:16:05.773Z,36.40
2018-04-09T01:18:33.252Z,35.30
2018-04-09T01:21:00.741Z,34.07
2018-04-09T01:23:28.243Z,35.37
2018-04-09T01:25:55.724Z,34.67
2018-04-09T01:28:23.193Z,34.70
2018-04-09T01:30:50.665Z,34.60
2018-04-09T01:33:18.175Z,33.07
2018-04-09T01:35:45.617Z,35.93
2018-04-09T01:38:13.097Z,35.47
2018-04-09T01:40:40.549Z,33.90
2018-04-09T01:43:08.031Z,34.97
2018-04-09T01:45:35.465Z,34.63
2018-04-09T01:48:02.975Z,34.60
2018-04-09T01:50:31.661Z,36.83
2018-04-09T01:52:59.108Z,36.17
2018-04-09T01:55:26.671Z,34.90
2018-04-09T01:57:54.288Z,32.87
2018-04-09T02:00:23.126Z,35.43
2018-04-09T02:02:50.793Z,34.10
2018-04-09T02:05:20.121Z,34.50
2018-04-09T02:07:47.770Z,34.97
2018-04-09T02:10:15.373Z,34.13
2018-04-09T02:12:42.823Z,35.07
2018-04-09T02:15:10.452Z,34.60
2018-04-09T02:17:37.970Z,35.37
2018-04-09T02:20:06.419Z,33.83
2018-04-09T02:22:33.984Z,34.57
2018-04-09T02:25:01.533Z,36.60
2018-04-09T02:30:11.125Z,33.27
2018-04-09T02:32:38.597Z,34.93
2018-04-09T02:35:06.105Z,34.20
2018-04-09T02:37:33.566Z,34.67
2018-04-09T02:40:01.065Z,33.87
2018-04-09T02:42:28.517Z,32.20
2018-04-09T02:44:56.080Z,33.10
2018-04-09T02:47:23.541Z,34.00
2018-04-09T02:49:51.056Z,33.97
2018-04-09T02:52:18.532Z,32.90
2018-04-09T02:54:46.020Z,33.67
2018-04-09T02:57:13.597Z,32.40
2018-04-09T02:59:41.090Z,32.87
2018-04-09T03:02:08.567Z,32.83
2018-04-09T03:04:36.017Z,32.13
2018-04-09T03:07:03.464Z,30.90
2018-04-09T03:09:30.939Z,30.93
2018-04-09T03:12:00.331Z,30.87
2018-04-09T03:14:28.219Z,29.67
2018-04-09T03:16:56.344Z,29.87
2018-04-09T03:19:23.995Z,30.03
2018-04-09T03:21:51.582Z,28.67
2018-04-09T03:24:19.159Z,28.70
2018-04-09T03:26:46.689Z,28.73
2018-04-09T03:29:14.313Z,29.07
2018-04-09T03:31:42.498Z,29.40
2018-04-09T03:34:10.112Z,27.57
2018-04-09T03:36:38.536Z,29.13
2018-04-09T03:39:06.098Z,27.37
2018-04-09T03:41:33.583Z,27.40
2018-04-09T03:44:01.105Z,27.33
2018-04-09T03:46:28.626Z,28.03
2018-04-09T03:48:56.394Z,26.93
2018-04-09T03:51:23.912Z,25.53
2018-04-09T03:53:51.447Z,26.20
2018-04-09T03:56:18.952Z,25.73
2018-04-09T03:58:51.432Z,26.53
2018-04-09T04:01:19.908Z,26.37
2018-04-09T04:03:47.460Z,27.40
2018-04-09T04:06:15.033Z,25.70
2018-04-09T04:08:42.574Z,24.57
2018-04-09T04:11:10.088Z,25.87
2018-04-09T04:13:37.624Z,26.40
2018-04-09T04:16:16.949Z,26.87
2018-04-09T04:18:55.995Z,25.90
2018-04-09T04:21:35.128Z,26.50
2018-04-09T04:24:02.579Z,26.27
2018-04-09T04:26:30.037Z,30.07
2018-04-09T04:28:58.055Z,27.80
2018-04-09T04:31:28.440Z,25.10
2018-04-09T04:33:56.009Z,26.73
2018-04-09T04:36:23.588Z,26.23
2018-04-09T04:38:51.083Z,26.47
2018-04-09T04:41:18.538Z,25.43
2018-04-09T04:43:46.048Z,24.20
2018-04-09T04:46:13.508Z,25.27
2018-04-09T04:48:40.970Z,24.60
2018-04-09T04:51:08.422Z,24.83
2018-04-09T04:53:35.856Z,25.10
2018-04-09T04:56:03.341Z,25.00
2018-04-09T04:58:30.778Z,23.97
2018-04-09T05:00:58.254Z,23.50
2018-04-09T05:03:25.723Z,24.17
2018-04-09T05:05:53.176Z,25.67
2018-04-09T05:08:20.660Z,25.40
2018-04-09T05:10:48.140Z,24.13
2018-04-09T05:13:15.611Z,24.13
2018-04-09T05:15:43.098Z,24.07
2018-04-09T05:18:10.628Z,24.07
2018-04-09T05:20:38.137Z,24.70
2018-04-09T05:23:05.576Z,24.67
2018-04-09T05:25:33.021Z,23.73
2018-04-09T05:28:00.516Z,24.97
2018-04-09T05:30:27.979Z,24.53
2018-04-09T05:32:55.417Z,25.13
2018-04-09T05:35:22.900Z,25.03
2018-04-09T05:37:50.409Z,23.53
2018-04-09T05:40:17.910Z,25.00
2018-04-09T05:42:45.374Z,23.87
2018-04-09T05:45:12.825Z,24.23
2018-04-09T05:47:40.332Z,24.57
2018-04-09T05:50:07.779Z,24.70
2018-04-09T05:52:35.290Z,24.47
2018-04-09T05:55:02.764Z,23.53
2018-04-09T05:57:30.353Z,25.10
2018-04-09T06:00:12.334Z,25.47
2018-04-09T06:02:39.812Z,24.67
2018-04-09T06:05:07.290Z,24.87
2018-04-09T06:07:34.736Z,25.00
2018-04-09T06:10:02.243Z,24.53
2018-04-09T06:12:29.694Z,23.57
2018-04-09T06:14:57.194Z,23.67
2018-04-09T06:17:24.646Z,25.47
2018-04-09T06:19:52.113Z,24.60
2018-04-09T06:22:19.597Z,24.70
2018-04-09T06:24:47.138Z,26.03
2018-04-09T06:27:14.618Z,24.17
2018-04-09T06:29:42.067Z,25.27
2018-04-09T06:32:09.553Z,25.17
2018-04-09T06:34:37.022Z,25.13
2018-04-09T06:37:04.447Z,23.83
2018-04-09T06:39:31.953Z,26.03
2018-04-09T06:41:59.427Z,25.50
2018-04-09T06:44:26.934Z,24.47
2018-04-09T06:46:54.620Z,24.93
2018-04-09T06:49:22.093Z,24.47
2018-04-09T06:51:49.624Z,24.10
2018-04-09T06:59:26.819Z,24.90
2018-04-09T07:01:54.361Z,27.37
2018-04-09T07:04:22.017Z,25.27
2018-04-09T07:06:49.523Z,25.80
2018-04-09T07:09:17.977Z,25.33
2018-04-09T07:11:45.490Z,25.03
2018-04-09T07:14:12.947Z,25.50
2018-04-09T07:16:40.406Z,25.30
2018-04-09T07:19:07.859Z,25.23
2018-04-09T07:21:35.399Z,26.23
2018-04-09T07:24:02.895Z,26.13
2018-04-09T07:26:30.357Z,24.80
2018-04-09T07:28:57.817Z,24.67
2018-04-09T07:31:25.331Z,24.47
2018-04-09T07:33:52.865Z,23.13
2018-04-09T07:36:20.406Z,24.43
2018-04-09T07:38:47.855Z,24.23
2018-04-09T07:41:15.332Z,23.50
2018-04-09T07:43:42.869Z,23.77
2018-04-09T07:46:10.314Z,24.53
2018-04-09T07:48:38.097Z,26.03
2018-04-09T07:51:05.553Z,23.73
2018-04-09T07:53:33.005Z,24.17
2018-04-09T07:56:00.501Z,25.60
2018-04-09T07:58:27.961Z,23.20
2018-04-09T08:00:55.460Z,24.23
2018-04-09T08:03:22.933Z,23.87
2018-04-09T08:05:50.435Z,24.27
2018-04-09T08:08:17.947Z,23.97
2018-04-09T08:10:45.449Z,23.97
2018-04-09T08:13:13.879Z,24.67
2018-04-09T08:15:41.393Z,22.00
2018-04-09T08:18:08.877Z,23.17
2018-04-09T08:20:36.359Z,23.13
2018-04-09T08:23:03.821Z,23.27
2018-04-09T08:25:31.292Z,23.67
2018-04-09T08:27:58.849Z,23.90
2018-04-09T08:30:26.406Z,23.20
2018-04-09T08:32:53.880Z,23.33
2018-04-09T08:35:21.470Z,22.47
2018-04-09T08:37:48.977Z,21.47
2018-04-09T08:40:16.496Z,22.27
2018-04-09T08:42:43.946Z,22.90
2018-04-09T08:45:11.468Z,22.60
2018-04-09T08:47:38.918Z,23.20
2018-04-09T08:50:06.409Z,23.27
2018-04-09T08:52:33.984Z,22.87
2018-04-09T08:55:01.456Z,22.40
2018-04-09T08:57:28.936Z,22.70
2018-04-09T08:59:56.437Z,22.63
2018-04-09T09:02:23.910Z,24.33
2018-04-09T09:04:52.881Z,21.03
2018-04-09T09:07:20.362Z,24.07
2018-04-09T09:09:47.827Z,24.27
2018-04-09T09:12:15.256Z,23.50
2018-04-09T09:14:42.728Z,21.07
2018-04-09T09:17:10.178Z,23.57
2018-04-09T09:19:37.673Z,20.10
2018-04-09T09:22:05.169Z,23.27
2018-04-09T09:24:33.499Z,24.00
2018-04-09T09:27:00.982Z,19.33
2018-04-09T09:29:28.493Z,22.55
2018-04-09T09:31:56.014Z,18.83
2018-04-09T09:34:23.496Z,21.12
2018-04-09T09:36:50.971Z,20.55
2018-04-09T09:39:18.475Z,22.92
2018-04-09T09:41:45.987Z,19.90
2018-04-09T09:44:13.487Z,23.20
2018-04-09T09:46:41.067Z,21.25
2018-04-09T09:49:08.671Z,26.62
2018-04-09T09:51:36.130Z,22.27
2018-04-09T09:54:03.710Z,19.90
2018-04-09T09:56:31.192Z,18.83
2018-04-09T09:58:58.652Z,21.02
2018-04-09T10:01:27.891Z,20.00
2018-04-09T10:03:55.394Z,19.27
2018-04-09T10:06:22.842Z,18.12
2018-04-09T10:08:50.300Z,17.67
2018-04-09T10:11:17.846Z,18.25
2018-04-09T10:13:45.283Z,18.70
2018-04-09T10:16:12.790Z,19.12
2018-04-09T10:18:40.328Z,17.25
2018-04-09T10:21:07.818Z,16.27
2018-04-09T10:23:35.300Z,16.73
2018-04-09T10:26:02.886Z,18.65
2018-04-09T10:28:30.354Z,16.48
2018-04-09T10:30:57.933Z,17.77
2018-04-09T10:33:25.398Z,19.55
2018-04-09T10:35:52.876Z,19.12
2018-04-09T10:38:20.321Z,18.42
2018-04-09T10:40:47.824Z,18.60
2018-04-09T10:43:15.295Z,18.95
2018-04-09T10:45:42.738Z,18.00
2018-04-09T10:48:10.634Z,17.65
2018-04-09T10:50:43.149Z,18.27
2018-04-09T10:53:10.636Z,20.55
2018-04-09T10:55:38.163Z,17.83
2018-04-09T10:58:05.720Z,16.25
2018-04-09T11:00:33.259Z,17.65
2018-04-09T11:03:00.774Z,16.67
2018-04-09T11:05:28.278Z,16.33
2018-04-09T11:07:55.724Z,15.45
2018-04-09T11:10:23.177Z,17.25
2018-04-09T11:12:50.639Z,17.35
2018-04-09T11:15:18.147Z,16.80
2018-04-09T11:17:45.574Z,17.02
2018-04-09T11:20:13.086Z,16.48
2018-04-09T11:22:40.535Z,17.23
2018-04-09T11:25:08.024Z,16.27
2018-04-09T11:27:35.481Z,16.20
2018-04-09T11:30:03.027Z,16.67
2018-04-09T11:32:30.507Z,17.02
2018-04-09T11:34:57.956Z,17.23
2018-04-09T11:37:25.435Z,18.35
2018-04-09T11:39:52.895Z,16.30
2018-04-09T11:42:20.357Z,17.10
2018-04-09T11:44:48.641Z,16.37
2018-04-09T11:47:16.185Z,16.95
2018-04-09T11:49:43.660Z,17.05
2018-04-09T11:52:11.136Z,16.85
2018-04-09T11:54:38.654Z,17.90
2018-04-09T11:57:06.098Z,17.50
2018-04-09T11:59:33.631Z,17.62
2018-04-09T12:02:01.181Z,18.20
2018-04-09T12:07:10.395Z,18.25
2018-04-09T12:09:38.169Z,16.35
2018-04-09T12:12:05.667Z,19.17
2018-04-09T12:14:33.161Z,17.77
2018-04-09T12:17:00.614Z,18.70
2018-04-09T12:19:28.082Z,18.67
2018-04-09T12:21:55.530Z,17.37
2018-04-09T12:24:23.019Z,19.65
2018-04-09T12:26:50.466Z,17.75
2018-04-09T12:29:17.912Z,18.90
2018-04-09T12:31:45.557Z,18.42
2018-04-09T12:34:13.022Z,16.40
2018-04-09T12:36:40.597Z,20.02
2018-04-09T12:39:08.126Z,20.50
2018-04-09T12:41:35.606Z,21.17
2018-04-09T12:44:03.122Z,19.57
2018-04-09T12:46:30.551Z,20.83
2018-04-09T12:48:58.079Z,20.52
2018-04-09T12:51:25.549Z,19.08
2018-04-09T12:53:53.015Z,19.85
2018-04-09T12:56:20.648Z,18.60
2018-04-09T12:58:48.101Z,19.12
2018-04-09T13:01:15.597Z,19.95
2018-04-09T13:03:43.121Z,18.83
2018-04-09T13:06:10.618Z,18.80
2018-04-09T13:08:38.120Z,17.35
2018-04-09T13:11:05.567Z,17.55
2018-04-09T13:13:33.007Z,17.08
2018-04-09T13:16:00.455Z,17.92
2018-04-09T13:18:27.910Z,17.23
2018-04-09T13:20:55.428Z,17.87
2018-04-09T13:23:22.874Z,17.73
2018-04-09T13:25:50.339Z,15.80
2018-04-09T13:28:17.801Z,16.70
2018-04-09T13:30:45.272Z,16.83
2018-04-09T13:33:12.758Z,16.27
2018-04-09T13:35:40.232Z,16.40
2018-04-09T13:38:07.706Z,15.50
2018-04-09T13:40:35.170Z,14.98
2018-04-09T13:43:02.637Z,14.85
2018-04-09T13:45:30.096Z,15.23
2018-04-09T13:47:57.570Z,13.95
2018-04-09T13:50:25.028Z,13.62
2018-04-09T13:52:52.486Z,13.85
2018-04-09T13:55:19.947Z,13.62
2018-04-09T13:57:47.430Z,13.40
2018-04-09T14:00:14.898Z,13.40
2018-04-09T14:02:42.386Z,13.93
2018-04-09T14:05:09.857Z,13.65
2018-04-09T14:07:37.372Z,12.85
2018-04-09T14:10:04.863Z,13.57
2018-04-09T14:12:32.408Z,14.00
2018-04-09T14:14:59.996Z,12.40
2018-04-09T14:17:27.479Z,12.98
2018-04-09T14:19:55.010Z,12.32
2018-04-09T14:22:22.508Z,13.43
2018-04-09T14:24:49.976Z,12.32
2018-04-09T14:27:17.462Z,11.93
2018-04-09T14:29:44.943Z,12.90
2018-04-09T14:32:12.407Z,14.82
2018-04-09T14:34:39.905Z,13.30
2018-04-09T14:37:07.362Z,12.95
2018-04-09T14:39:34.835Z,14.82
2018-04-09T14:42:02.383Z,15.52
2018-04-09T14:44:29.898Z,16.12
2018-04-09T14:46:57.422Z,15.75
2018-04-09T14:49:24.915Z,16.77
2018-04-09T14:51:52.459Z,16.80
2018-04-09T14:54:19.930Z,17.70
2018-04-09T14:56:47.476Z,17.23
2018-04-09T14:59:14.935Z,19.37
2018-04-09T15:01:42.441Z,17.95
2018-04-09T15:04:09.934Z,17.98
2018-04-09T15:06:37.419Z,16.77
2018-04-09T15:09:04.997Z,15.73
2018-04-09T15:11:32.531Z,15.07
2018-04-09T15:14:00.987Z,16.17
2018-04-09T15:16:28.496Z,17.15
2018-04-09T15:18:55.973Z,16.77
2018-04-09T15:21:23.433Z,19.50
2018-04-09T15:23:50.888Z,17.60
2018-04-09T15:26:18.457Z,19.05
2018-04-09T15:28:45.914Z,20.88
2018-04-09T15:31:13.453Z,19.67
2018-04-09T15:33:40.924Z,19.48
2018-04-09T15:36:08.452Z,19.37
2018-04-09T15:38:35.965Z,17.55
2018-04-09T15:41:03.431Z,20.12
2018-04-09T15:43:30.907Z,18.98
2018-04-09T15:45:58.407Z,17.77
2018-04-09T15:48:25.929Z,17.87
2018-04-09T15:53:35.544Z,18.42
2018-04-09T15:56:03.058Z,18.95
2018-04-09T15:58:30.982Z,16.85
2018-04-09T16:00:58.528Z,16.85
2018-04-09T16:03:26.055Z,18.25
2018-04-09T16:05:53.574Z,16.02
2018-04-09T16:08:21.027Z,17.00
2018-04-09T16:10:53.461Z,16.98
2018-04-09T16:13:20.994Z,16.90
2018-04-09T16:15:48.439Z,15.88
2018-04-09T16:18:16.040Z,16.62
2018-04-09T16:20:43.465Z,14.82
2018-04-09T16:23:10.933Z,17.25
2018-04-09T16:25:38.447Z,17.27
2018-04-09T16:28:05.912Z,17.83
2018-04-09T16:30:33.411Z,17.27
2018-04-09T16:33:00.962Z,17.70
2018-04-09T16:35:28.474Z,16.42
2018-04-09T16:37:55.923Z,16.30
2018-04-09T16:40:23.496Z,16.02
2018-04-09T16:42:51.007Z,18.00
2018-04-09T16:45:18.462Z,16.35
2018-04-09T16:47:45.943Z,17.50
2018-04-09T16:50:13.413Z,15.90
2018-04-09T16:52:40.862Z,16.10
2018-04-09T16:55:08.455Z,15.68
2018-04-09T16:57:35.866Z,17.27
2018-04-09T17:00:03.378Z,14.63
2018-04-09T17:02:31.186Z,14.95
2018-04-09T17:04:58.860Z,15.25
2018-04-09T17:07:26.360Z,15.50
2018-04-09T17:09:53.801Z,15.45
2018-04-09T17:12:21.290Z,16.08
2018-04-09T17:14:48.822Z,16.08
2018-04-09T17:17:16.406Z,15.02
2018-04-09T17:19:43.898Z,14.93
2018-04-09T17:22:11.467Z,16.20
2018-04-09T17:24:38.947Z,15.70
2018-04-09T17:27:06.491Z,16.73
2018-04-09T17:29:33.969Z,17.42
2018-04-09T17:32:01.433Z,17.27
2018-04-09T17:34:28.956Z,16.73
2018-04-09T17:36:56.476Z,16.95
2018-04-09T17:39:23.973Z,18.15
2018-04-09T17:41:51.480Z,17.77
2018-04-09T17:44:18.954Z,17.20
2018-04-09T17:46:46.425Z,17.48
2018-04-09T17:49:13.929Z,17.30
2018-04-09T17:51:41.507Z,16.70
2018-04-09T17:54:08.992Z,17.37
2018-04-09T17:56:36.479Z,16.60
2018-04-09T17:59:03.998Z,16.00
2018-04-09T18:01:31.499Z,15.93
2018-04-09T18:03:58.969Z,16.60
2018-04-09T18:06:26.460Z,18.50
2018-04-09T18:08:54.805Z,16.23
2018-04-09T18:11:22.337Z,16.55
2018-04-09T18:13:49.861Z,16.65
2018-04-09T18:16:17.349Z,19.42
2018-04-09T18:18:44.826Z,17.30
2018-04-09T18:21:12.285Z,16.92
2018-04-09T18:23:39.731Z,18.80
2018-04-09T18:26:07.272Z,18.50
2018-04-09T18:28:34.704Z,16.58
2018-04-09T18:31:02.212Z,16.15
2018-04-09T18:33:29.764Z,14.90
2018-04-09T18:35:57.263Z,16.35
2018-04-09T18:38:24.803Z,14.45
2018-04-09T18:40:52.351Z,14.77
2018-04-09T18:43:19.859Z,17.02
2018-04-09T18:45:47.387Z,16.27
2018-04-09T18:48:14.951Z,15.23
2018-04-09T18:50:42.464Z,15.80
2018-04-09T18:53:10.097Z,17.87
2018-04-09T18:55:37.581Z,15.15
2018-04-09T18:58:05.198Z,17.55
2018-04-09T19:00:33.021Z,14.98
2018-04-09T19:03:00.504Z,14.25
2018-04-09T19:05:27.988Z,17.67
2018-04-09T19:07:55.504Z,15.18
2018-04-09T19:10:23.018Z,17.58
2018-04-09T19:12:51.258Z,14.60
2018-04-09T19:15:18.790Z,13.93
2018-04-09T19:17:46.304Z,13.98
2018-04-09T19:20:18.770Z,16.33
2018-04-09T19:22:46.216Z,14.18
2018-04-09T19:25:13.746Z,17.05
2018-04-09T19:27:41.276Z,13.80
2018-04-09T19:30:08.798Z,16.02
2018-04-09T19:32:36.248Z,14.25
2018-04-09T19:35:08.679Z,16.10
2018-04-09T19:37:41.840Z,15.23
2018-04-09T19:40:14.976Z,18.33
2018-04-09T19:42:42.470Z,13.50
2018-04-09T19:45:10.049Z,17.65
2018-04-09T19:47:55.007Z,14.48
2018-04-09T19:50:22.476Z,16.00
2018-04-09T19:52:53.414Z,14.10
2018-04-09T19:55:38.486Z,15.65
2018-04-09T19:58:12.557Z,14.15
2018-04-09T20:00:51.628Z,16.27
2018-04-09T20:03:30.920Z,13.85
2018-04-09T20:06:10.417Z,13.40
2018-04-09T20:08:37.986Z,16.00
2018-04-09T20:11:17.730Z,14.23
2018-04-09T20:13:57.115Z,16.27
2018-04-09T20:16:30.403Z,13.45
2018-04-09T20:19:03.727Z,16.50
2018-04-09T20:21:31.161Z,12.93
2018-04-09T20:24:10.023Z,16.12
2018-04-09T20:26:43.337Z,14.52
2018-04-09T20:29:28.249Z,16.02
2018-04-09T20:32:01.510Z,13.60
2018-04-09T20:34:41.032Z,13.55
2018-04-09T20:37:20.095Z,15.10
2018-04-09T20:39:47.746Z,13.90
2018-04-09T20:42:15.219Z,15.55
2018-04-09T20:44:42.718Z,13.60
2018-04-09T20:47:10.188Z,14.20
2018-04-09T20:49:37.639Z,13.05
2018-04-09T20:52:05.158Z,15.00
2018-04-09T20:54:32.665Z,14.23
2018-04-09T20:57:00.251Z,13.60
2018-04-09T21:02:20.170Z,15.82
2018-04-09T21:04:47.786Z,13.45
2018-04-09T21:07:15.340Z,15.85
2018-04-09T21:09:43.647Z,14.20
2018-04-09T21:12:11.103Z,13.90
2018-04-09T21:14:38.595Z,13.65
2018-04-09T21:17:06.115Z,13.13
2018-04-09T21:19:33.632Z,13.85
2018-04-09T21:22:01.106Z,13.50
2018-04-09T21:24:28.586Z,14.52
2018-04-09T21:26:56.078Z,13.07
2018-04-09T21:29:23.578Z,15.18
2018-04-09T21:31:51.108Z,12.18
2018-04-09T21:34:18.603Z,14.52
2018-04-09T21:36:46.624Z,13.32
2018-04-09T21:39:14.162Z,15.75
2018-04-09T21:41:41.727Z,12.90
2018-04-09T21:44:09.238Z,14.05
2018-04-09T21:46:36.972Z,11.98
2018-04-09T21:49:04.705Z,14.75
2018-04-09T21:51:32.641Z,12.32
2018-04-09T21:54:00.143Z,14.32
2018-04-09T21:56:27.726Z,15.60
2018-04-09T21:58:55.462Z,14.65
2018-04-09T22:01:22.999Z,12.95
2018-04-09T22:03:50.539Z,14.57
2018-04-09T22:06:18.593Z,12.48
2018-04-09T22:08:46.177Z,14.15
2018-04-09T22:11:13.813Z,15.40
2018-04-09T22:13:41.303Z,14.13
2018-04-09T22:16:08.912Z,13.85
2018-04-09T22:18:36.395Z,15.20
2018-04-09T22:21:03.924Z,12.45
2018-04-09T22:23:31.399Z,15.45
2018-04-09T22:25:58.875Z,13.40
2018-04-09T22:28:27.139Z,16.10
2018-04-09T22:30:54.623Z,13.52
2018-04-09T22:33:22.067Z,15.35
2018-04-09T22:35:49.539Z,14.05
2018-04-09T22:38:17.015Z,15.60
2018-04-09T22:40:44.514Z,15.32
2018-04-09T22:43:13.036Z,15.57
2018-04-09T22:45:40.769Z,15.90
2018-04-09T22:48:08.448Z,16.37
2018-04-09T22:50:37.724Z,14.25
2018-04-09T22:53:05.258Z,15.65
2018-04-09T22:55:32.693Z,13.68
2018-04-09T22:58:00.588Z,16.20
2018-04-09T23:00:28.321Z,13.43
2018-04-09T23:02:55.817Z,16.75
2018-04-09T23:05:23.309Z,17.08
2018-04-09T23:07:50.760Z,15.15
2018-04-09T23:10:18.265Z,17.52
2018-04-09T23:12:45.711Z,17.52
2018-04-09T23:15:13.201Z,17.67
2018-04-09T23:17:40.655Z,18.20
2018-04-09T23:20:08.112Z,16.92
2018-04-09T23:22:35.584Z,15.38
2018-04-09T23:25:03.075Z,17.62
2018-04-09T23:27:30.519Z,18.37
2018-04-09T23:29:58.039Z,15.40
2018-04-09T23:32:25.500Z,17.25
2018-04-09T23:34:53.049Z,18.33
2018-04-09T23:37:20.771Z,18.48
2018-04-09T23:39:48.645Z,18.12
2018-04-09T23:42:16.170Z,18.02
2018-04-09T23:44:43.720Z,18.23
2018-04-09T23:47:11.411Z,17.30
2018-04-09T23:49:38.971Z,18.10
2018-04-09T23:52:06.449Z,16.62
2018-04-09T23:54:33.975Z,18.12
2018-04-09T23:57:01.460Z,16.95
2018-04-09T23:59:29.323Z,17.95
